In Rescue
 
Open Full Screen Window  High Contrast Mode
Wind Gusting 18 knots
07
May 20, 2019 3:20 PM EDT
Weather Information
Wind Direction
  280 °
Wind Speed
  07 kt (8 mph)
Wind Gust
  18 kt (21 mph)
Variable Wind
250°
310°
Altimeter
29.95 in
Visibility
10 SM
Temperature
13° C
55° F
Dewpoint
04° C
39° F
Humidity
55%
Sky Condition
Overcast @ 3,900 ft
Broken @ 3,000 ft
MVFR

METAR KPHN 201920Z AUTO 28007G18KT 250V310 10SM BKN030 OVC039 13/04 A2995 RMK AO2

FAA Disclaimer: The data displayed is for advisory purposes only and is not to be used for flight planning or operations.